createdAt,value
2022-08-17T00:01:05.035Z,12.82
2022-08-17T00:02:22.476Z,12.70
2022-08-17T00:03:36.208Z,11.52
2022-08-17T00:04:52.730Z,10.95
2022-08-17T00:06:00.103Z,11.90
2022-08-17T00:07:03.549Z,12.75
2022-08-17T00:08:11.411Z,12.30
2022-08-17T00:09:18.774Z,12.18
2022-08-17T00:10:23.282Z,12.25
2022-08-17T00:11:30.117Z,12.65
2022-08-17T00:12:44.343Z,12.48
2022-08-17T00:13:52.547Z,12.68
2022-08-17T00:14:59.860Z,12.07
2022-08-17T00:16:06.980Z,12.45
2022-08-17T00:17:11.854Z,10.07
2022-08-17T00:19:00.360Z,9.95
2022-08-17T00:19:41.675Z,9.20
2022-08-17T00:20:45.389Z,9.88
2022-08-17T00:22:29.787Z,10.85
2022-08-17T00:23:16.989Z,11.70
2022-08-17T00:24:22.500Z,10.77
2022-08-17T00:25:26.481Z,10.48
2022-08-17T00:26:44.241Z,10.63
2022-08-17T00:27:48.696Z,10.48
2022-08-17T00:28:53.682Z,10.38
2022-08-17T00:29:57.499Z,9.95
2022-08-17T00:31:02.595Z,9.88
2022-08-17T00:33:12.122Z,10.32
2022-08-17T00:33:34.247Z,11.07
2022-08-17T00:34:38.552Z,12.70
2022-08-17T00:35:43.730Z,12.38
2022-08-17T00:36:47.249Z,13.20
2022-08-17T00:37:51.818Z,11.32
2022-08-17T00:38:56.522Z,10.85
2022-08-17T00:40:00.149Z,11.07
2022-08-17T00:41:11.714Z,11.40
2022-08-17T00:42:16.189Z,11.68
2022-08-17T00:43:24.768Z,11.45
2022-08-17T00:44:31.316Z,10.68
2022-08-17T00:45:36.011Z,10.98
2022-08-17T00:46:43.976Z,11.48
2022-08-17T00:47:49.751Z,12.00
2022-08-17T00:48:55.374Z,11.30
2022-08-17T00:49:59.878Z,10.85
2022-08-17T00:51:09.478Z,10.70
2022-08-17T00:52:17.056Z,9.27
2022-08-17T00:53:22.724Z,9.40
2022-08-17T00:54:30.038Z,8.57
2022-08-17T00:55:34.699Z,8.27
2022-08-17T00:56:51.426Z,8.88
2022-08-17T00:57:59.439Z,10.45
2022-08-17T00:59:04.758Z,9.30
2022-08-17T01:00:13.561Z,9.30
2022-08-17T01:01:21.474Z,9.15
2022-08-17T01:02:27.069Z,9.73
2022-08-17T01:03:31.446Z,11.02
2022-08-17T01:04:37.940Z,9.85
2022-08-17T01:05:42.668Z,10.23
2022-08-17T01:07:08.090Z,10.45
2022-08-17T01:08:13.907Z,10.02
2022-08-17T01:09:19.899Z,9.82
2022-08-17T01:11:01.122Z,10.02
2022-08-17T01:12:03.738Z,10.68
2022-08-17T01:13:07.869Z,10.63
2022-08-17T01:14:12.540Z,10.77
2022-08-17T01:15:17.989Z,11.05
2022-08-17T01:16:26.021Z,11.07
2022-08-17T01:17:32.107Z,11.68
2022-08-17T01:18:36.929Z,12.68
2022-08-17T01:19:42.866Z,9.93
2022-08-17T01:20:51.142Z,10.20
2022-08-17T01:21:59.978Z,11.63
2022-08-17T01:23:06.028Z,11.07
2022-08-17T01:24:12.868Z,9.02
2022-08-17T01:25:17.956Z,10.85
2022-08-17T01:26:22.414Z,10.07
2022-08-17T01:27:28.408Z,10.10
2022-08-17T01:28:53.820Z,8.98
2022-08-17T01:30:01.564Z,9.63
2022-08-17T01:31:08.321Z,10.63
2022-08-17T01:32:15.584Z,12.07
2022-08-17T01:33:19.516Z,10.45
2022-08-17T01:34:42.745Z,9.73
2022-08-17T01:35:48.209Z,11.15
2022-08-17T01:36:53.941Z,10.63
2022-08-17T01:37:57.672Z,10.60
2022-08-17T01:39:04.218Z,9.45
2022-08-17T01:40:15.047Z,11.23
2022-08-17T01:41:21.169Z,9.45
2022-08-17T01:42:32.828Z,11.40
2022-08-17T01:43:41.977Z,11.85
2022-08-17T01:44:45.874Z,10.52
2022-08-17T01:46:02.828Z,9.93
2022-08-17T01:47:07.698Z,10.52
2022-08-17T01:48:13.156Z,9.95
2022-08-17T01:49:16.869Z,10.57
2022-08-17T01:50:24.707Z,9.45
2022-08-17T01:51:32.955Z,7.70
2022-08-17T01:52:38.337Z,8.52
2022-08-17T01:53:46.076Z,7.82
2022-08-17T01:54:53.789Z,8.35
2022-08-17T01:56:08.428Z,7.60
2022-08-17T01:57:13.689Z,8.77
2022-08-17T02:00:06.277Z,11.32
2022-08-17T02:01:15.252Z,11.63
2022-08-17T02:02:30.774Z,11.75
2022-08-17T02:03:36.210Z,13.35
2022-08-17T02:04:41.273Z,12.40
2022-08-17T02:05:45.898Z,12.35
2022-08-17T02:06:54.075Z,10.35
2022-08-17T02:08:00.875Z,10.98
2022-08-17T02:09:06.637Z,10.48
2022-08-17T02:10:21.979Z,9.00
2022-08-17T02:11:32.936Z,10.10
2022-08-17T02:12:39.874Z,12.10
2022-08-17T02:15:04.921Z,12.10
2022-08-17T02:16:08.831Z,10.77
2022-08-17T02:17:13.839Z,11.85
2022-08-17T02:18:17.628Z,12.40
2022-08-17T02:19:22.822Z,11.88
2022-08-17T02:20:41.159Z,11.57
2022-08-17T02:23:58.620Z,11.85
2022-08-17T02:25:04.192Z,12.23
2022-08-17T02:26:09.398Z,13.63
2022-08-17T02:27:33.416Z,12.18
2022-08-17T02:29:08.727Z,9.85
2022-08-17T02:30:59.618Z,10.90
2022-08-17T02:31:40.237Z,13.23
2022-08-17T02:33:41.598Z,12.27
2022-08-17T02:34:48.438Z,11.55
2022-08-17T02:35:52.587Z,11.27
2022-08-17T02:36:57.630Z,11.00
2022-08-17T02:38:02.147Z,10.80
2022-08-17T02:39:08.737Z,10.25
2022-08-17T02:40:12.832Z,10.85
2022-08-17T02:41:22.216Z,11.18
2022-08-17T02:42:28.320Z,10.98
2022-08-17T02:43:51.618Z,10.85
2022-08-17T02:44:55.931Z,10.30
2022-08-17T02:46:00.776Z,11.10
2022-08-17T02:47:04.948Z,12.65
2022-08-17T02:48:09.934Z,12.50
2022-08-17T02:49:13.587Z,12.65
2022-08-17T02:50:19.778Z,12.32
2022-08-17T02:51:23.498Z,13.23
2022-08-17T02:52:43.368Z,11.82
2022-08-17T02:53:47.640Z,11.20
2022-08-17T02:54:52.109Z,11.32
2022-08-17T02:55:55.549Z,11.63
2022-08-17T02:57:03.658Z,11.32
2022-08-17T02:58:07.781Z,10.60
2022-08-17T02:59:12.369Z,9.23
2022-08-17T03:00:19.128Z,9.38
2022-08-17T03:01:23.664Z,8.73
2022-08-17T03:02:29.866Z,8.05
2022-08-17T03:03:34.565Z,7.63
2022-08-17T03:04:38.340Z,7.95
2022-08-17T03:05:43.339Z,8.98
2022-08-17T03:06:46.686Z,8.38
2022-08-17T03:07:51.128Z,8.13
2022-08-17T03:08:54.898Z,8.50
2022-08-17T03:09:59.770Z,6.97
2022-08-17T03:11:03.143Z,11.25
2022-08-17T03:12:11.385Z,10.55
2022-08-17T03:13:15.798Z,10.68
2022-08-17T03:14:20.676Z,10.70
2022-08-17T03:15:31.927Z,11.00
2022-08-17T03:16:36.440Z,12.65
2022-08-17T03:17:40.163Z,13.15
2022-08-17T03:18:44.671Z,10.23
2022-08-17T03:19:48.185Z,8.98
2022-08-17T03:20:52.564Z,7.72
2022-08-17T03:21:55.929Z,6.53
2022-08-17T03:23:03.235Z,7.72
2022-08-17T03:24:09.014Z,11.90
2022-08-17T03:25:15.921Z,10.25
2022-08-17T03:26:23.099Z,8.52
2022-08-17T03:27:29.159Z,8.85
2022-08-17T03:28:32.450Z,9.00
2022-08-17T03:29:36.967Z,8.80
2022-08-17T03:30:40.675Z,8.57
2022-08-17T03:31:45.820Z,9.93
2022-08-17T03:32:50.590Z,9.43
2022-08-17T03:33:54.906Z,10.40
2022-08-17T03:35:04.951Z,12.38
2022-08-17T03:36:10.106Z,12.15
2022-08-17T03:37:13.531Z,12.07
2022-08-17T03:38:18.130Z,12.02
2022-08-17T03:39:21.467Z,10.40
2022-08-17T03:40:34.392Z,11.05
2022-08-17T03:41:50.320Z,11.02
2022-08-17T03:42:55.202Z,10.48
2022-08-17T03:43:59.451Z,10.30
2022-08-17T03:45:04.499Z,11.05
2022-08-17T03:46:28.453Z,11.38
2022-08-17T03:47:56.638Z,11.65
2022-08-17T03:49:17.921Z,12.77
2022-08-17T03:50:39.491Z,10.85
2022-08-17T03:52:01.462Z,11.10
2022-08-17T03:53:38.429Z,12.93
2022-08-17T03:55:01.018Z,12.00
2022-08-17T03:56:23.862Z,12.65
2022-08-17T03:57:28.686Z,12.32
2022-08-17T03:58:33.408Z,11.85
2022-08-17T03:59:38.781Z,11.40
2022-08-17T04:00:45.960Z,11.88
2022-08-17T04:01:53.185Z,11.52
2022-08-17T04:02:56.933Z,10.98
2022-08-17T04:04:01.565Z,10.50
2022-08-17T04:05:07.000Z,11.35
2022-08-17T04:06:10.437Z,11.38
2022-08-17T04:07:14.888Z,11.18
2022-08-17T04:08:18.461Z,11.48
2022-08-17T04:09:23.062Z,10.80
2022-08-17T04:10:26.882Z,11.02
2022-08-17T04:11:31.380Z,11.63
2022-08-17T04:12:45.656Z,11.93
2022-08-17T04:13:50.571Z,11.15
2022-08-17T04:14:55.215Z,11.32
2022-08-17T04:16:00.357Z,11.32
2022-08-17T04:17:04.741Z,10.93
2022-08-17T04:18:08.039Z,10.90
2022-08-17T04:19:15.613Z,11.23
2022-08-17T04:20:21.036Z,11.98
2022-08-17T04:21:25.720Z,11.85
2022-08-17T04:22:30.009Z,11.65
2022-08-17T04:23:38.220Z,12.13
2022-08-17T04:24:41.569Z,12.13
2022-08-17T04:25:48.527Z,12.68
2022-08-17T04:26:54.366Z,12.30
2022-08-17T04:27:59.338Z,13.10
2022-08-17T04:29:04.119Z,12.57
2022-08-17T04:30:09.929Z,13.70
2022-08-17T04:31:14.229Z,13.13
2022-08-17T04:32:21.774Z,13.15
2022-08-17T04:33:44.408Z,14.52
2022-08-17T04:34:47.717Z,13.77
2022-08-17T04:35:53.686Z,14.43
2022-08-17T04:36:57.589Z,14.50
2022-08-17T04:38:01.928Z,14.40
2022-08-17T04:39:05.480Z,14.77
2022-08-17T04:40:28.070Z,13.95
2022-08-17T04:41:49.951Z,14.43
2022-08-17T04:43:03.141Z,14.07
2022-08-17T04:44:09.274Z,14.05
2022-08-17T04:45:13.139Z,14.48
2022-08-17T04:46:21.419Z,12.57
2022-08-17T04:47:24.743Z,13.63
2022-08-17T04:48:36.499Z,13.95
2022-08-17T04:49:41.587Z,13.82
2022-08-17T04:50:48.572Z,14.50
2022-08-17T04:51:56.240Z,14.38
2022-08-17T04:53:03.879Z,14.35
2022-08-17T04:54:10.596Z,13.50
2022-08-17T04:55:13.857Z,14.52
2022-08-17T04:56:19.316Z,14.43
2022-08-17T04:57:22.682Z,14.43
2022-08-17T04:58:27.098Z,14.05
2022-08-17T04:59:33.237Z,14.25
2022-08-17T05:00:37.517Z,13.73
2022-08-17T05:01:44.004Z,14.18
2022-08-17T05:02:49.969Z,14.07
2022-08-17T05:03:56.502Z,13.60
2022-08-17T05:04:59.669Z,13.93
2022-08-17T05:06:04.320Z,14.82
2022-08-17T05:07:08.624Z,14.52
2022-08-17T05:08:12.029Z,14.93
2022-08-17T05:09:17.716Z,13.88
2022-08-17T05:10:21.188Z,13.75
2022-08-17T05:11:26.660Z,13.68
2022-08-17T05:12:29.928Z,13.50
2022-08-17T05:13:34.341Z,15.27
2022-08-17T05:14:40.878Z,15.00
2022-08-17T05:15:47.677Z,13.70
2022-08-17T05:16:52.400Z,14.45
2022-08-17T05:17:55.837Z,15.25
2022-08-17T05:19:00.478Z,16.25
2022-08-17T05:20:04.941Z,15.65
2022-08-17T05:21:09.706Z,15.73
2022-08-17T05:22:15.058Z,15.25
2022-08-17T05:23:21.317Z,14.07
2022-08-17T05:24:43.070Z,15.00
2022-08-17T05:25:51.745Z,14.70
2022-08-17T05:26:56.576Z,14.60
2022-08-17T05:28:00.230Z,15.10
2022-08-17T05:29:06.789Z,15.00
2022-08-17T05:30:13.438Z,14.07
2022-08-17T05:31:21.118Z,14.18
2022-08-17T05:32:38.770Z,14.82
2022-08-17T05:33:46.298Z,18.60
2022-08-17T05:35:00.713Z,18.40
2022-08-17T05:36:07.975Z,17.87
2022-08-17T05:37:11.617Z,17.53
2022-08-17T05:38:16.779Z,16.40
2022-08-17T05:39:20.247Z,16.20
2022-08-17T05:40:26.351Z,17.00
2022-08-17T05:41:37.087Z,15.73
2022-08-17T05:42:40.715Z,15.50
2022-08-17T05:43:45.170Z,14.67
2022-08-17T05:44:48.740Z,15.23
2022-08-17T05:45:59.744Z,16.00
2022-08-17T05:47:03.429Z,15.13
2022-08-17T05:48:08.990Z,13.83
2022-08-17T05:49:14.976Z,14.50
2022-08-17T05:50:27.154Z,14.13
2022-08-17T05:51:49.461Z,14.87
2022-08-17T05:52:58.563Z,14.37
2022-08-17T05:54:14.618Z,14.67
2022-08-17T05:55:22.129Z,14.43
2022-08-17T05:56:34.610Z,13.83
2022-08-17T05:57:50.302Z,14.90
2022-08-17T05:59:04.519Z,14.57
2022-08-17T06:00:15.519Z,14.53
2022-08-17T06:01:30.273Z,14.33
2022-08-17T06:02:45.568Z,15.37
2022-08-17T06:03:58.508Z,14.13
2022-08-17T06:05:19.688Z,15.50
2022-08-17T06:06:36.446Z,14.07
2022-08-17T06:07:48.067Z,13.80
2022-08-17T06:08:55.688Z,15.90
2022-08-17T06:10:02.973Z,14.47
2022-08-17T06:11:21.150Z,14.43
2022-08-17T06:12:38.049Z,14.33
2022-08-17T06:13:53.978Z,14.63
2022-08-17T06:15:10.961Z,15.03
2022-08-17T06:16:33.720Z,14.87
2022-08-17T06:17:42.838Z,14.90
2022-08-17T06:18:48.910Z,15.03
2022-08-17T06:19:56.629Z,14.33
2022-08-17T06:21:02.560Z,14.70
2022-08-17T06:22:07.780Z,15.50
2022-08-17T06:23:19.790Z,15.23
2022-08-17T06:24:28.578Z,14.90
2022-08-17T06:25:35.596Z,15.60
2022-08-17T06:26:43.303Z,14.90
2022-08-17T06:27:53.657Z,15.50
2022-08-17T06:29:00.892Z,15.33
2022-08-17T06:30:09.559Z,14.57
2022-08-17T06:31:20.354Z,13.93
2022-08-17T06:32:23.787Z,13.93
2022-08-17T06:33:32.653Z,14.73
2022-08-17T06:34:36.119Z,14.27
2022-08-17T06:35:50.914Z,15.17
2022-08-17T06:37:01.964Z,14.00
2022-08-17T06:38:17.311Z,14.63
2022-08-17T06:39:45.610Z,14.87
2022-08-17T06:41:06.529Z,14.57
2022-08-17T06:42:54.982Z,14.80
2022-08-17T06:44:01.019Z,13.43
2022-08-17T06:45:10.098Z,13.90
2022-08-17T06:46:21.033Z,14.17
2022-08-17T06:47:29.294Z,14.67
2022-08-17T06:48:40.525Z,14.03
2022-08-17T06:49:54.621Z,13.10
2022-08-17T06:51:00.929Z,13.63
2022-08-17T06:52:42.303Z,13.13
2022-08-17T06:53:42.899Z,13.53
2022-08-17T06:54:54.365Z,12.07
2022-08-17T06:56:00.370Z,12.40
2022-08-17T06:57:10.715Z,12.87
2022-08-17T06:58:16.909Z,11.90
2022-08-17T06:59:23.881Z,11.43
2022-08-17T07:00:33.825Z,11.83
2022-08-17T07:01:39.017Z,12.47
2022-08-17T07:03:02.117Z,12.47
2022-08-17T07:04:12.271Z,12.97
2022-08-17T07:05:17.459Z,13.10
2022-08-17T07:06:24.099Z,11.20
2022-08-17T07:07:57.230Z,12.73
2022-08-17T07:09:05.669Z,11.33
2022-08-17T07:10:09.720Z,12.40
2022-08-17T07:11:17.539Z,11.87
2022-08-17T07:12:25.439Z,12.23
2022-08-17T07:13:35.777Z,12.00
2022-08-17T07:14:45.140Z,11.60
2022-08-17T07:15:55.111Z,10.70
2022-08-17T07:17:05.398Z,11.20
2022-08-17T07:18:08.918Z,11.13
2022-08-17T07:19:16.199Z,12.07
2022-08-17T07:20:22.972Z,10.53
2022-08-17T07:21:38.739Z,10.87
2022-08-17T07:22:55.217Z,10.73
2022-08-17T07:24:29.310Z,9.93
2022-08-17T07:25:35.347Z,10.93
2022-08-17T07:26:39.121Z,9.73
2022-08-17T07:27:46.023Z,10.82
2022-08-17T07:28:50.012Z,10.25
2022-08-17T07:29:58.037Z,10.23
2022-08-17T07:31:01.224Z,10.82
2022-08-17T07:32:05.960Z,10.38
2022-08-17T07:33:13.402Z,10.68
2022-08-17T07:34:19.330Z,10.35
2022-08-17T07:35:40.916Z,9.77
2022-08-17T07:36:45.874Z,10.82
2022-08-17T07:37:54.340Z,9.57
2022-08-17T07:38:59.563Z,10.05
2022-08-17T07:40:22.697Z,10.02
2022-08-17T07:41:27.062Z,10.00
2022-08-17T07:43:23.785Z,9.88
2022-08-17T07:44:27.454Z,9.70
2022-08-17T07:45:49.475Z,9.88
2022-08-17T07:47:12.358Z,10.90
2022-08-17T07:48:20.757Z,9.93
2022-08-17T07:49:36.217Z,10.00
2022-08-17T07:50:39.795Z,10.48
2022-08-17T07:52:00.063Z,10.10
2022-08-17T07:53:24.521Z,10.13
2022-08-17T07:54:35.951Z,10.15
2022-08-17T07:55:41.759Z,10.20
2022-08-17T07:56:48.012Z,11.00
2022-08-17T07:57:56.309Z,11.00
2022-08-17T07:59:13.878Z,10.15
2022-08-17T08:00:26.717Z,10.23
2022-08-17T08:01:39.432Z,10.88
2022-08-17T08:02:48.447Z,11.52
2022-08-17T08:03:52.784Z,10.20
2022-08-17T08:05:08.670Z,11.20
2022-08-17T08:06:22.208Z,11.32
2022-08-17T08:07:29.677Z,11.02
2022-08-17T08:08:38.454Z,11.07
2022-08-17T08:09:43.322Z,10.20
2022-08-17T08:11:00.491Z,11.02
2022-08-17T08:12:33.359Z,11.38
2022-08-17T08:13:42.875Z,11.25
2022-08-17T08:14:54.740Z,11.57
2022-08-17T08:16:24.591Z,10.63
2022-08-17T08:17:35.860Z,10.65
2022-08-17T08:18:56.116Z,10.43
2022-08-17T08:20:51.379Z,11.18
2022-08-17T08:21:35.020Z,10.85
2022-08-17T08:22:47.885Z,10.43
2022-08-17T08:23:57.855Z,11.30
2022-08-17T08:25:13.878Z,11.20
2022-08-17T08:26:26.608Z,10.40
2022-08-17T08:27:39.353Z,11.48
2022-08-17T08:28:47.279Z,12.23
2022-08-17T08:29:56.073Z,11.27
2022-08-17T08:31:11.027Z,11.40
2022-08-17T08:32:21.147Z,11.55
2022-08-17T08:33:33.549Z,11.43
2022-08-17T08:35:00.746Z,12.05
2022-08-17T08:37:12.770Z,11.60
2022-08-17T08:37:51.821Z,11.82
2022-08-17T08:39:01.326Z,11.23
2022-08-17T08:40:13.396Z,10.93
2022-08-17T08:41:31.081Z,11.23
2022-08-17T08:42:38.559Z,10.18
2022-08-17T08:44:03.889Z,11.10
2022-08-17T08:45:13.890Z,10.27
2022-08-17T08:46:26.608Z,10.43
2022-08-17T08:47:40.596Z,10.05
2022-08-17T08:49:10.274Z,10.13
2022-08-17T08:50:37.120Z,10.02
2022-08-17T08:51:50.680Z,9.85
2022-08-17T08:53:06.025Z,10.88
2022-08-17T08:54:26.743Z,10.48
2022-08-17T08:55:37.979Z,9.80
2022-08-17T08:57:19.487Z,9.95
2022-08-17T08:58:32.226Z,10.18
2022-08-17T08:59:42.124Z,11.43
2022-08-17T09:00:49.491Z,9.60
2022-08-17T09:02:02.107Z,9.02
2022-08-17T09:03:20.321Z,8.40
2022-08-17T09:05:12.992Z,10.32
2022-08-17T09:06:32.252Z,8.38
2022-08-17T09:07:51.450Z,7.85
2022-08-17T09:09:08.948Z,7.55
2022-08-17T09:10:26.897Z,7.30
2022-08-17T09:12:01.374Z,8.00
2022-08-17T09:13:10.584Z,7.55
2022-08-17T09:14:21.040Z,7.95
2022-08-17T09:15:28.918Z,7.88
2022-08-17T09:16:36.318Z,9.00
2022-08-17T09:17:42.112Z,7.80
2022-08-17T09:19:00.150Z,8.75
2022-08-17T09:20:28.166Z,8.45
2022-08-17T09:21:47.961Z,7.57
2022-08-17T09:23:00.072Z,8.63
2022-08-17T09:24:11.677Z,7.55
2022-08-17T09:25:19.069Z,8.10
2022-08-17T09:26:25.755Z,9.05
2022-08-17T09:27:35.191Z,8.65
2022-08-17T09:28:39.992Z,9.07
2022-08-17T09:29:48.395Z,8.48
2022-08-17T09:30:54.022Z,9.98
2022-08-17T09:31:58.649Z,9.18
2022-08-17T09:33:06.609Z,8.30
2022-08-17T09:34:14.287Z,8.45
2022-08-17T09:35:37.183Z,9.00
2022-08-17T09:36:47.081Z,9.18
2022-08-17T09:38:09.610Z,9.30
2022-08-17T09:39:16.963Z,8.80
2022-08-17T09:40:26.724Z,8.43
2022-08-17T09:41:37.745Z,8.30
2022-08-17T09:42:46.158Z,10.05
2022-08-17T09:43:56.200Z,9.00
2022-08-17T09:45:23.427Z,8.80
2022-08-17T09:46:31.023Z,9.05
2022-08-17T09:47:45.766Z,8.35
2022-08-17T09:48:55.561Z,8.63
2022-08-17T09:50:04.477Z,11.05
2022-08-17T09:51:11.698Z,8.65
2022-08-17T09:52:20.998Z,7.95
2022-08-17T09:53:25.686Z,8.13
2022-08-17T09:54:40.159Z,8.23
2022-08-17T09:56:02.808Z,8.20
2022-08-17T09:57:29.154Z,8.43
2022-08-17T09:58:44.499Z,8.65
2022-08-17T09:59:57.370Z,8.68
2022-08-17T10:01:06.873Z,7.80
2022-08-17T10:02:26.641Z,8.30
2022-08-17T10:03:42.032Z,7.60
2022-08-17T10:04:55.501Z,9.60
2022-08-17T10:06:06.594Z,8.05
2022-08-17T10:07:17.169Z,8.07
2022-08-17T10:08:34.027Z,7.97
2022-08-17T10:09:45.523Z,8.45
2022-08-17T10:10:59.089Z,7.88
2022-08-17T10:12:20.227Z,8.02
2022-08-17T10:13:31.769Z,8.73
2022-08-17T10:14:44.435Z,8.13
2022-08-17T10:15:54.818Z,8.35
2022-08-17T10:17:04.756Z,8.50
2022-08-17T10:18:24.440Z,8.77
2022-08-17T10:19:39.193Z,7.45
2022-08-17T10:21:14.322Z,8.30
2022-08-17T10:22:43.658Z,7.88
2022-08-17T10:24:06.848Z,8.73
2022-08-17T10:25:42.887Z,8.65
2022-08-17T10:26:57.060Z,7.97
2022-08-17T10:28:19.755Z,8.38
2022-08-17T10:29:28.984Z,8.88
2022-08-17T10:30:34.268Z,8.75
2022-08-17T10:31:42.119Z,8.27
2022-08-17T10:32:48.713Z,9.07
2022-08-17T10:34:04.740Z,8.65
2022-08-17T10:35:34.444Z,8.25
2022-08-17T10:37:03.947Z,7.97
2022-08-17T10:38:33.368Z,9.13
2022-08-17T10:39:50.379Z,8.77
2022-08-17T10:41:09.918Z,8.38
2022-08-17T10:42:32.647Z,8.90
2022-08-17T10:44:40.320Z,7.85
2022-08-17T10:45:23.698Z,7.30
2022-08-17T10:46:31.791Z,8.10
2022-08-17T10:48:05.329Z,7.72
2022-08-17T10:49:32.897Z,7.07
2022-08-17T10:50:51.969Z,7.32
2022-08-17T10:51:57.146Z,7.30
2022-08-17T10:53:00.083Z,8.30
2022-08-17T10:54:04.448Z,7.45
2022-08-17T10:55:14.057Z,8.20
2022-08-17T10:56:26.510Z,7.95
2022-08-17T10:57:41.048Z,8.07
2022-08-17T10:58:47.529Z,7.93
2022-08-17T10:59:54.054Z,8.00
2022-08-17T11:00:57.999Z,8.45
2022-08-17T11:02:14.670Z,7.32
2022-08-17T11:03:22.499Z,7.70
2022-08-17T11:04:34.437Z,7.70
2022-08-17T11:05:47.706Z,7.70
2022-08-17T11:07:02.212Z,7.85
2022-08-17T11:08:24.028Z,7.82
2022-08-17T11:09:35.895Z,7.50
2022-08-17T11:11:08.397Z,8.05
2022-08-17T11:12:21.290Z,8.02
2022-08-17T11:13:33.826Z,7.35
2022-08-17T11:14:47.409Z,7.72
2022-08-17T11:16:02.348Z,6.70
2022-08-17T11:17:17.148Z,7.55
2022-08-17T11:18:42.026Z,7.88
2022-08-17T11:20:05.168Z,7.47
2022-08-17T11:21:59.698Z,7.72
2022-08-17T11:23:27.218Z,7.50
2022-08-17T11:24:36.291Z,7.50
2022-08-17T11:25:41.482Z,7.50
2022-08-17T11:27:02.933Z,7.80
2022-08-17T11:28:10.842Z,7.00
2022-08-17T11:29:24.590Z,7.38
2022-08-17T11:30:48.580Z,7.85
2022-08-17T11:32:02.298Z,8.07
2022-08-17T11:33:53.838Z,8.05
2022-08-17T11:35:14.429Z,7.90
2022-08-17T11:36:29.651Z,8.15
2022-08-17T11:37:46.206Z,7.60
2022-08-17T11:38:58.180Z,8.15
2022-08-17T11:40:16.743Z,8.30
2022-08-17T11:41:27.591Z,8.10
2022-08-17T11:42:45.946Z,7.75
2022-08-17T11:44:11.490Z,8.02
2022-08-17T11:45:39.119Z,7.78
2022-08-17T11:47:13.250Z,8.15
2022-08-17T11:48:38.597Z,7.57
2022-08-17T11:50:11.109Z,7.57
2022-08-17T11:51:35.824Z,7.57
2022-08-17T11:52:42.420Z,8.20
2022-08-17T11:54:32.373Z,7.95
2022-08-17T11:56:06.030Z,8.57
2022-08-17T11:58:01.962Z,7.95
2022-08-17T11:59:46.221Z,8.55
2022-08-17T12:00:55.919Z,8.60
2022-08-17T12:01:59.523Z,7.95
2022-08-17T12:03:25.032Z,8.50
2022-08-17T12:04:30.992Z,8.40
2022-08-17T12:05:34.963Z,7.88
2022-08-17T12:06:48.556Z,8.05
2022-08-17T12:08:00.750Z,8.32
2022-08-17T12:09:11.965Z,8.18
2022-08-17T12:10:17.393Z,8.43
2022-08-17T12:11:55.508Z,8.75
2022-08-17T12:12:54.726Z,8.25
2022-08-17T12:14:00.769Z,8.15
2022-08-17T12:15:12.136Z,7.88
2022-08-17T12:16:17.311Z,8.10
2022-08-17T12:17:41.183Z,7.40
2022-08-17T12:18:51.378Z,9.02
2022-08-17T12:19:56.148Z,8.30
2022-08-17T12:21:28.461Z,8.40
2022-08-17T12:22:43.007Z,8.55
2022-08-17T12:23:52.635Z,8.30
2022-08-17T12:25:01.817Z,8.77
2022-08-17T12:26:10.399Z,7.88
2022-08-17T12:28:04.257Z,7.95
2022-08-17T12:28:47.998Z,8.43
2022-08-17T12:29:52.487Z,7.80
2022-08-17T12:30:58.238Z,9.10
2022-08-17T12:32:03.566Z,8.43
2022-08-17T12:33:12.820Z,9.23
2022-08-17T12:34:19.937Z,8.35
2022-08-17T12:35:29.859Z,9.02
2022-08-17T12:36:34.786Z,9.27
2022-08-17T12:37:47.053Z,8.70
2022-08-17T12:38:52.016Z,9.38
2022-08-17T12:39:58.876Z,8.95
2022-08-17T12:41:23.807Z,9.88
2022-08-17T12:42:31.307Z,9.25
2022-08-17T12:43:34.346Z,9.00
2022-08-17T12:44:50.034Z,9.20
2022-08-17T12:45:57.377Z,9.10
2022-08-17T12:47:04.863Z,8.90
2022-08-17T12:48:11.318Z,9.25
2022-08-17T12:49:27.106Z,9.75
2022-08-17T12:50:33.685Z,9.88
2022-08-17T12:51:36.766Z,9.55
2022-08-17T12:52:43.138Z,9.63
2022-08-17T12:53:54.936Z,9.30
2022-08-17T12:55:01.076Z,9.18
2022-08-17T12:56:09.768Z,8.52
2022-08-17T12:57:16.226Z,9.30
2022-08-17T12:58:24.459Z,9.23
2022-08-17T12:59:29.696Z,8.95
2022-08-17T13:00:41.213Z,8.65
2022-08-17T13:01:53.855Z,8.32
2022-08-17T13:03:01.568Z,8.15
2022-08-17T13:04:06.196Z,8.43
2022-08-17T13:05:19.286Z,7.88
2022-08-17T13:06:29.169Z,8.45
2022-08-17T13:07:37.129Z,7.82
2022-08-17T13:08:45.507Z,8.50
2022-08-17T13:09:52.658Z,8.18
2022-08-17T13:10:58.486Z,8.13
2022-08-17T13:12:01.516Z,8.15
2022-08-17T13:13:19.526Z,8.50
2022-08-17T13:14:22.897Z,9.25
2022-08-17T13:15:29.847Z,8.73
2022-08-17T13:16:34.996Z,8.70
2022-08-17T13:17:39.448Z,8.68
2022-08-17T13:18:45.118Z,8.50
2022-08-17T13:19:50.224Z,9.55
2022-08-17T13:20:54.679Z,8.60
2022-08-17T13:22:00.358Z,8.73
2022-08-17T13:23:12.027Z,7.90
2022-08-17T13:24:19.205Z,8.60
2022-08-17T13:25:23.490Z,7.20
2022-08-17T13:26:30.137Z,6.90
2022-08-17T13:27:35.136Z,7.68
2022-08-17T13:28:38.205Z,8.27
2022-08-17T13:29:51.369Z,8.07
2022-08-17T13:31:26.504Z,8.05
2022-08-17T13:32:38.016Z,7.50
2022-08-17T13:33:45.318Z,7.28
2022-08-17T13:35:12.836Z,7.15
2022-08-17T13:36:20.058Z,8.02
2022-08-17T13:37:33.688Z,8.02
2022-08-17T13:38:44.212Z,8.02
2022-08-17T13:39:47.705Z,7.97
2022-08-17T13:40:53.978Z,8.32
2022-08-17T13:41:58.088Z,8.10
2022-08-17T13:43:03.565Z,7.60
2022-08-17T13:44:32.069Z,7.88
2022-08-17T13:45:38.848Z,7.70
2022-08-17T13:46:52.493Z,7.38
2022-08-17T13:48:14.608Z,7.45
2022-08-17T13:49:21.556Z,7.45
2022-08-17T13:50:24.728Z,7.53
2022-08-17T13:51:31.716Z,7.40
2022-08-17T13:52:37.946Z,7.60
2022-08-17T13:53:58.563Z,8.27
2022-08-17T13:55:05.579Z,8.10
2022-08-17T13:56:37.408Z,8.38
2022-08-17T13:57:36.108Z,8.35
2022-08-17T13:58:42.395Z,8.80
2022-08-17T13:59:54.513Z,8.50
2022-08-17T14:00:58.732Z,8.05
2022-08-17T14:02:04.015Z,8.48
2022-08-17T14:03:08.683Z,8.35
2022-08-17T14:04:14.609Z,8.38
2022-08-17T14:05:18.767Z,8.23
2022-08-17T14:06:22.148Z,8.15
2022-08-17T14:07:46.607Z,7.80
2022-08-17T14:08:49.747Z,8.13
2022-08-17T14:09:56.029Z,7.70
2022-08-17T14:11:00.375Z,7.85
2022-08-17T14:12:05.427Z,8.68
2022-08-17T14:13:09.569Z,8.32
2022-08-17T14:14:13.177Z,7.60
2022-08-17T14:15:20.731Z,8.30
2022-08-17T14:16:23.874Z,7.97
2022-08-17T14:17:30.492Z,8.20
2022-08-17T14:18:56.187Z,7.82
2022-08-17T14:20:01.681Z,7.70
2022-08-17T14:21:05.010Z,7.32
2022-08-17T14:22:22.937Z,7.10
2022-08-17T14:23:26.708Z,6.97
2022-08-17T14:24:32.441Z,7.32
2022-08-17T14:25:35.378Z,7.10
2022-08-17T14:26:39.505Z,6.93
2022-08-17T14:27:53.456Z,6.53
2022-08-17T14:28:58.148Z,6.80
2022-08-17T14:30:04.428Z,6.88
2022-08-17T14:31:10.809Z,6.53
2022-08-17T14:32:20.332Z,6.45
2022-08-17T14:33:24.980Z,7.10
2022-08-17T14:34:30.506Z,7.75
2022-08-17T14:35:33.583Z,7.68
2022-08-17T14:36:38.208Z,7.38
2022-08-17T14:37:41.594Z,7.65
2022-08-17T14:38:46.427Z,6.97
2022-08-17T14:39:50.456Z,7.10
2022-08-17T14:40:53.697Z,7.57
2022-08-17T14:41:58.745Z,7.13
2022-08-17T14:43:02.877Z,6.70
2022-08-17T14:44:06.146Z,7.70
2022-08-17T14:45:31.791Z,6.28
2022-08-17T14:46:35.999Z,6.97
2022-08-17T14:47:41.969Z,6.55
2022-08-17T14:48:46.313Z,6.65
2022-08-17T14:49:51.038Z,6.32
2022-08-17T14:50:56.716Z,6.50
2022-08-17T14:51:59.737Z,6.47
2022-08-17T14:53:04.630Z,6.18
2022-08-17T14:54:08.971Z,6.75
2022-08-17T14:55:13.359Z,6.47
2022-08-17T14:56:17.619Z,6.75
2022-08-17T14:57:25.969Z,7.10
2022-08-17T14:58:36.939Z,6.90
2022-08-17T14:59:45.050Z,6.70
2022-08-17T15:00:51.238Z,6.85
2022-08-17T15:01:56.199Z,6.60
2022-08-17T15:03:04.590Z,6.40
2022-08-17T15:04:08.362Z,6.35
2022-08-17T15:05:15.997Z,6.32
2022-08-17T15:06:20.180Z,5.95
2022-08-17T15:07:30.236Z,5.80
2022-08-17T15:08:35.329Z,6.30
2022-08-17T15:09:39.329Z,6.45
2022-08-17T15:10:45.022Z,6.35
2022-08-17T15:11:48.429Z,6.00
2022-08-17T15:12:52.749Z,6.07
2022-08-17T15:13:57.174Z,6.80
2022-08-17T15:15:01.022Z,7.32
2022-08-17T15:16:06.905Z,6.22
2022-08-17T15:17:10.089Z,5.75
2022-08-17T15:18:14.543Z,6.82
2022-08-17T15:19:17.536Z,6.13
2022-08-17T15:20:24.963Z,6.90
2022-08-17T15:21:29.225Z,6.35
2022-08-17T15:22:32.183Z,6.72
2022-08-17T15:23:36.194Z,6.53
2022-08-17T15:24:39.274Z,6.90
2022-08-17T15:25:43.993Z,6.65
2022-08-17T15:26:48.165Z,6.07
2022-08-17T15:27:52.516Z,6.30
2022-08-17T15:28:57.523Z,6.35
2022-08-17T15:30:00.644Z,6.18
2022-08-17T15:31:06.271Z,6.25